Time;durP1;ratioP1;P1;durP2;ratioP2;P2;SDS_P1;SDS_P2;PMS_P1;PMS_P2;Temp;Humidity;BMP_temperature;BMP_pressure;BME280_temperature;BME280_humidity;BME280_pressure;Samples;Min_cycle;Max_cycle;Signal;HPM_P1;HPM_P2
2022/08/06 00:01:49;;;;;;;;;1.00;1.00;;;;;19.48;38.03;102244.63;5041109;28;45373;-81
2022/08/06 00:04:15;;;;;;;;;0.25;0.25;;;;;19.47;37.43;102247.31;5064861;28;45491;-81
2022/08/06 00:06:40;;;;;;;;;1.00;1.00;;;;;19.43;38.35;102248.38;5078913;28;45451;-81
2022/08/06 00:09:06;;;;;;;;;0.00;0.00;;;;;19.40;38.89;102252.00;5060775;28;45364;-81
2022/08/06 00:11:31;;;;;;;;;2.00;1.00;;;;;19.40;37.69;102253.78;5078900;28;45420;-82
2022/08/06 00:13:57;;;;;;;;;1.00;1.00;;;;;19.36;37.82;102249.56;5078267;28;66309;-81
2022/08/06 00:16:22;;;;;;;;;0.50;0.50;;;;;19.32;38.27;102248.81;5059878;28;74949;-82
2022/08/06 00:18:47;;;;;;;;;1.00;1.00;;;;;19.29;38.01;102248.94;5077866;28;72752;-82
2022/08/06 00:21:13;;;;;;;;;1.00;1.00;;;;;19.28;38.32;102255.16;5077948;28;69113;-81
2022/08/06 00:23:38;;;;;;;;;1.00;1.00;;;;;19.26;37.75;102242.03;5079002;28;45236;-81
2022/08/06 00:26:03;;;;;;;;;2.00;1.00;;;;;19.23;38.88;102238.66;5056405;28;67228;-81
2022/08/06 00:28:29;;;;;;;;;1.00;1.00;;;;;19.20;38.77;102236.13;5057321;28;45319;-81
2022/08/06 00:30:54;;;;;;;;;1.00;1.00;;;;;19.14;39.21;102256.56;5056271;28;70257;-82
2022/08/06 00:33:19;;;;;;;;;1.75;1.00;;;;;19.10;38.66;102260.25;5056317;28;70556;-81
2022/08/06 00:35:45;;;;;;;;;1.00;1.00;;;;;19.05;39.20;102254.31;5056093;28;75574;-81
2022/08/06 00:38:10;;;;;;;;;2.50;1.00;;;;;19.02;38.61;102254.44;5072163;28;64336;-81
2022/08/06 00:40:36;;;;;;;;;1.00;1.00;;;;;19.00;39.86;102255.41;5056114;28;64500;-81
2022/08/06 00:43:03;;;;;;;;;0.25;0.25;;;;;18.99;39.54;102256.34;5055829;28;70312;-81
2022/08/06 00:45:32;;;;;;;;;1.00;1.00;;;;;18.99;39.27;102256.34;5057081;28;45369;-81
2022/08/06 00:47:58;;;;;;;;;0.25;0.25;;;;;18.98;38.80;102259.88;5056916;28;45321;-81
2022/08/06 00:50:24;;;;;;;;;1.50;1.25;;;;;18.94;39.19;102257.41;5072633;28;45305;-81
2022/08/06 00:52:49;;;;;;;;;1.00;1.00;;;;;18.91;39.11;102262.78;5072650;28;45377;-81
2022/08/06 00:55:15;;;;;;;;;2.00;0.50;;;;;18.87;39.63;102263.84;5055513;28;74743;-81
2022/08/06 00:57:40;;;;;;;;;1.25;1.25;;;;;18.85;39.23;102270.06;5055818;28;72184;-81
2022/08/06 01:00:07;;;;;;;;;1.00;1.00;;;;;18.83;39.04;102269.28;5055750;28;68114;-82
2022/08/06 01:02:33;;;;;;;;;4.00;1.00;;;;;18.82;38.87;102268.44;5072343;28;45496;-81
2022/08/06 01:04:58;;;;;;;;;0.25;0.25;;;;;18.81;39.19;102271.13;5056370;28;46340;-81
2022/08/06 01:07:23;;;;;;;;;0.00;0.00;;;;;18.81;39.20;102265.84;5055663;28;73062;-81
2022/08/06 01:09:49;;;;;;;;;0.00;0.00;;;;;18.79;39.42;102271.13;5055255;28;69484;-81
2022/08/06 01:12:16;;;;;;;;;1.00;1.00;;;;;18.75;39.44;102262.47;5056563;28;45346;-82
2022/08/06 01:14:42;;;;;;;;;1.25;1.00;;;;;18.74;40.06;102265.22;5038670;28;46192;-81
2022/08/06 01:17:12;;;;;;;;;1.25;1.00;;;;;18.70;40.14;102269.75;5038387;28;45428;-81
2022/08/06 01:19:48;;;;;;;;;2.75;2.00;;;;;18.67;39.82;102275.13;5056597;28;45309;-81
2022/08/06 01:22:39;;;;;;;;;1.75;1.75;;;;;18.67;40.16;102277.75;5038454;28;45487;-81
2022/08/06 01:25:23;;;;;;;;;1.75;1.00;;;;;18.67;41.25;102280.41;5022540;28;1297811;-81
2022/08/06 01:28:03;;;;;;;;;2.00;2.00;;;;;18.66;40.42;102281.31;5077667;28;45768;-81
2022/08/06 01:30:32;;;;;;;;;1.00;1.00;;;;;18.61;40.25;102275.38;5077777;28;45407;-81
2022/08/06 01:33:03;;;;;;;;;2.00;1.00;;;;;18.60;40.23;102283.34;5036193;28;45321;-81
2022/08/06 01:35:31;;;;;;;;;2.00;1.00;;;;;18.57;40.92;102281.66;5037272;28;46555;-81
2022/08/06 01:38:03;;;;;;;;;2.00;0.75;;;;;18.55;40.53;102275.59;5031388;28;45322;-81
2022/08/06 01:40:32;;;;;;;;;1.00;1.00;;;;;18.53;40.71;102277.41;5027158;28;45432;-81
2022/08/06 01:42:59;;;;;;;;;3.00;1.00;;;;;18.51;41.48;102272.19;5037431;28;45349;-81
2022/08/06 01:45:28;;;;;;;;;1.00;1.00;;;;;18.49;41.46;102276.69;5019265;28;45445;-81
2022/08/06 01:47:58;;;;;;;;;2.00;0.50;;;;;18.46;40.94;102278.56;5019238;28;45628;-81
2022/08/06 01:50:28;;;;;;;;;0.00;0.00;;;;;18.44;41.22;102278.63;5019454;28;45366;-81
2022/08/06 01:52:54;;;;;;;;;1.00;1.00;;;;;18.42;41.25;102274.34;5018154;28;45382;-81
2022/08/06 01:55:20;;;;;;;;;1.00;1.00;;;;;18.36;43.03;102270.16;5018993;28;46301;-81
2022/08/06 01:57:57;;;;;;;;;0.75;0.75;;;;;18.30;41.82;102271.25;5035999;28;72239;-81
2022/08/06 02:00:23;;;;;;;;;1.25;1.25;;;;;18.28;41.80;102280.97;5019202;28;45298;-82
2022/08/06 02:02:50;;;;;;;;;3.00;2.00;;;;;18.26;43.63;102284.59;5018191;28;70330;-81
2022/08/06 02:05:18;;;;;;;;;1.00;1.00;;;;;18.23;42.22;102275.00;5047610;28;45395;-81
2022/08/06 02:07:47;;;;;;;;;1.00;1.00;;;;;18.21;42.52;102276.00;5058714;28;45550;-81
2022/08/06 02:10:13;;;;;;;;;1.00;1.00;;;;;18.19;42.40;102271.63;5059161;28;45341;-81
2022/08/06 02:12:39;;;;;;;;;3.25;1.00;;;;;18.19;42.60;102276.91;5059080;28;45324;-81
2022/08/06 02:15:11;;;;;;;;;1.00;1.00;;;;;18.18;42.36;102274.31;5076894;28;49919;-81
2022/08/06 02:17:45;;;;;;;;;1.50;0.25;;;;;18.16;42.39;102274.41;5058947;28;45333;-81
2022/08/06 02:20:11;;;;;;;;;1.25;1.25;;;;;18.13;41.96;102273.66;5059035;28;45481;-81
2022/08/06 02:22:38;;;;;;;;;1.75;0.00;;;;;18.12;41.65;102271.91;5058673;28;45441;-81
2022/08/06 02:25:08;;;;;;;;;2.00;0.50;;;;;18.10;42.51;102279.88;5067004;28;45918;-81
2022/08/06 02:27:35;;;;;;;;;1.00;1.00;;;;;18.09;42.33;102274.66;5075644;28;45375;-82
2022/08/06 02:30:02;;;;;;;;;1.00;1.00;;;;;18.06;42.80;102272.16;5075716;28;45389;-81
2022/08/06 02:32:27;;;;;;;;;1.75;1.00;;;;;18.03;42.55;102273.09;5076751;28;45423;-81
2022/08/06 02:34:53;;;;;;;;;0.50;0.25;;;;;18.03;42.12;102285.41;5076642;28;45351;-81
2022/08/06 02:37:26;;;;;;;;;1.50;1.25;;;;;18.01;43.38;102279.34;5076447;28;45283;-81
2022/08/06 02:40:07;;;;;;;;;1.50;1.00;;;;;17.98;42.74;102275.91;5075654;28;45419;-81
2022/08/06 02:42:39;;;;;;;;;2.00;1.00;;;;;17.95;43.05;102273.38;5109609;27;45414;-81
2022/08/06 02:45:09;;;;;;;;;1.00;1.00;;;;;17.94;43.68;102276.94;5109388;27;45338;-81
2022/08/06 02:47:42;;;;;;;;;2.00;1.00;;;;;17.92;43.26;102270.88;5109539;27;45312;-81
2022/08/06 02:50:09;;;;;;;;;0.25;0.25;;;;;17.89;43.20;102270.97;5076574;27;45454;-81
2022/08/06 02:52:39;;;;;;;;;1.50;0.00;;;;;17.88;42.42;102269.22;5075615;28;68076;-81
2022/08/06 02:55:14;;;;;;;;;3.00;1.00;;;;;17.89;42.41;102270.13;5109346;27;45369;-81
2022/08/06 02:57:53;;;;;;;;;1.00;1.00;;;;;17.85;42.60;102276.38;5109252;27;45404;-81
2022/08/06 03:00:19;;;;;;;;;2.00;1.00;;;;;17.83;42.39;102279.06;5109257;27;45354;-82
2022/08/06 03:02:45;;;;;;;;;0.00;0.00;;;;;17.83;42.70;102267.66;5109581;27;45490;-81
2022/08/06 03:05:15;;;;;;;;;1.00;1.00;;;;;17.79;42.40;102266.88;5074367;27;45411;-81
2022/08/06 03:07:41;;;;;;;;;0.00;0.00;;;;;17.76;42.74;102267.00;5074953;28;45460;-81
2022/08/06 03:10:08;;;;;;;;;1.00;1.00;;;;;17.74;42.68;102263.56;5076277;28;45436;-81
2022/08/06 03:12:35;;;;;;;;;0.00;0.00;;;;;17.71;42.22;102259.25;5075057;28;45510;-81
2022/08/06 03:15:02;;;;;;;;;0.75;0.50;;;;;17.69;43.07;102265.50;5076052;28;45360;-81
2022/08/06 03:17:28;;;;;;;;;1.00;1.00;;;;;17.67;42.79;102268.19;5076100;27;45300;-81
2022/08/06 03:19:54;;;;;;;;;1.00;1.00;;;;;17.63;42.66;102261.31;5074683;28;45416;-81
2022/08/06 03:22:20;;;;;;;;;2.00;0.75;;;;;17.61;42.61;102265.78;5074513;28;54224;-81
2022/08/06 03:24:46;;;;;;;;;1.00;1.00;;;;;17.59;43.63;102262.34;5074666;28;75201;-81
2022/08/06 03:27:12;;;;;;;;;0.00;0.00;;;;;17.58;42.68;102268.50;5057827;28;45388;-81
2022/08/06 03:29:40;;;;;;;;;1.00;1.00;;;;;17.55;42.86;102265.97;5057093;28;68429;-81
2022/08/06 03:32:07;;;;;;;;;1.00;1.00;;;;;17.52;43.22;102266.94;5044472;28;45518;-81
2022/08/06 03:34:33;;;;;;;;;1.00;1.00;;;;;17.50;43.20;102263.50;5037451;28;45392;-81
2022/08/06 03:37:00;;;;;;;;;1.00;1.00;;;;;17.49;43.11;102266.19;5055601;28;45407;-81
2022/08/06 03:39:27;;;;;;;;;0.00;0.00;;;;;17.46;43.44;102264.53;5055746;28;45394;-81
2022/08/06 03:41:52;;;;;;;;;1.00;1.00;;;;;17.45;43.50;102269.81;5037796;28;45364;-81
2022/08/06 03:44:18;;;;;;;;;1.00;1.00;;;;;17.41;43.17;102264.66;5036495;28;75125;-81
2022/08/06 03:46:47;;;;;;;;;0.50;0.50;;;;;17.39;43.68;102263.00;5044784;28;45522;-80
2022/08/06 03:49:23;;;;;;;;;1.00;1.00;;;;;17.36;43.30;102261.31;5048141;28;45336;-81
2022/08/06 03:51:51;;;;;;;;;2.00;2.00;;;;;17.35;43.43;102261.38;5037661;28;45245;-82
2022/08/06 03:54:20;;;;;;;;;1.00;1.00;;;;;17.33;43.69;102257.94;5037501;28;47371;-81
2022/08/06 03:56:46;;;;;;;;;1.25;1.25;;;;;17.32;43.83;102254.44;5037551;28;45763;-81
2022/08/06 03:59:13;;;;;;;;;2.50;1.00;;;;;17.31;43.64;102259.75;5037718;28;45372;-81
2022/08/06 04:01:41;;;;;;;;;1.00;1.00;;;;;17.26;43.23;102265.16;5055485;28;45432;-80
2022/08/06 04:04:07;;;;;;;;;1.00;0.75;;;;;17.22;44.25;102271.44;5059869;28;46365;-81
2022/08/06 04:06:33;;;;;;;;;1.00;1.00;;;;;17.20;43.88;102273.28;5056757;28;65941;-81
2022/08/06 04:08:59;;;;;;;;;1.00;1.00;;;;;17.19;43.75;102272.38;5057538;28;45424;-81
2022/08/06 04:11:25;;;;;;;;;0.00;0.00;;;;;17.17;43.71;102268.94;5057687;28;45820;-81
2022/08/06 04:13:50;;;;;;;;;0.00;0.00;;;;;17.17;43.78;102271.59;5057114;28;49859;-80
2022/08/06 04:16:17;;;;;;;;;0.00;0.00;;;;;17.16;43.69;102271.63;5056971;28;67107;-81
2022/08/06 04:18:43;;;;;;;;;0.25;0.25;;;;;17.14;43.68;102279.59;5060648;28;45305;-81
2022/08/06 04:21:12;;;;;;;;;2.00;0.00;;;;;17.13;43.94;102277.88;5078694;28;49441;-81
2022/08/06 04:23:38;;;;;;;;;0.50;0.00;;;;;17.14;43.49;102281.34;5060708;28;45432;-81
2022/08/06 04:26:06;;;;;;;;;1.00;1.00;;;;;17.13;45.14;102279.63;5060641;28;45449;-81
2022/08/06 04:28:35;;;;;;;;;1.00;1.00;;;;;17.11;45.01;102286.72;5060716;28;45472;-81
2022/08/06 04:31:01;;;;;;;;;1.00;1.00;;;;;17.07;44.79;102285.97;5060677;28;45325;-81
2022/08/06 04:33:27;;;;;;;;;1.00;1.00;;;;;17.06;43.73;102286.00;5059428;28;71735;-81
2022/08/06 04:35:53;;;;;;;;;0.75;0.75;;;;;17.05;43.92;102289.53;5060620;28;45436;-81
2022/08/06 04:38:20;;;;;;;;;1.00;1.00;;;;;17.03;43.68;102297.47;5059960;28;55897;-80
2022/08/06 04:40:46;;;;;;;;;1.50;1.00;;;;;17.01;44.20;102294.03;5060510;28;45599;-81
2022/08/06 04:43:12;;;;;;;;;1.00;1.00;;;;;17.01;43.97;102292.28;5059642;28;66188;-81
2022/08/06 04:45:40;;;;;;;;;0.75;0.75;;;;;17.00;43.71;102298.44;5060245;28;45431;-81
2022/08/06 04:48:07;;;;;;;;;1.75;1.75;;;;;17.00;43.90;102308.09;5078366;28;45383;-81
2022/08/06 04:50:33;;;;;;;;;2.25;1.25;;;;;17.00;44.45;102306.31;5060190;28;45506;-81
2022/08/06 04:53:12;;;;;;;;;0.00;0.00;;;;;17.01;43.98;102317.69;5059282;28;71671;-81
2022/08/06 04:55:38;;;;;;;;;0.25;0.00;;;;;17.01;43.78;102315.06;5060316;28;45671;-81
2022/08/06 04:58:05;;;;;;;;;1.00;0.75;;;;;16.99;43.40;102315.13;5060378;28;45282;-81
2022/08/06 05:00:31;;;;;;;;;1.00;1.00;;;;;16.97;44.11;102318.72;5060322;28;45455;-81
2022/08/06 05:02:57;;;;;;;;;1.00;1.00;;;;;16.95;44.61;102325.78;5059565;28;45408;-81
2022/08/06 05:05:23;;;;;;;;;1.75;0.25;;;;;16.95;43.64;102328.41;5078048;27;45444;-81
2022/08/06 05:07:50;;;;;;;;;2.00;1.00;;;;;16.93;44.21;102323.19;5060106;28;45418;-81
2022/08/06 05:10:16;;;;;;;;;1.00;1.00;;;;;16.91;44.30;102330.28;5060122;28;45376;-81
2022/08/06 05:12:45;;;;;;;;;2.50;1.00;;;;;16.92;44.17;102331.13;5078121;28;45386;-81
2022/08/06 05:15:15;;;;;;;;;1.00;1.00;;;;;16.90;44.25;102331.19;5059850;28;45377;-81
2022/08/06 05:17:43;;;;;;;;;2.00;0.75;;;;;16.88;44.09;102330.34;5059516;28;45430;-81
2022/08/06 05:20:15;;;;;;;;;0.75;0.75;;;;;16.85;43.58;102330.47;5060030;28;45340;-81
2022/08/06 05:22:43;;;;;;;;;3.00;1.00;;;;;16.85;43.74;102333.09;5077766;28;46711;-81
2022/08/06 05:25:09;;;;;;;;;0.75;0.75;;;;;16.84;44.66;102331.38;5059643;28;46337;-81
2022/08/06 05:27:34;;;;;;;;;1.00;1.00;;;;;16.82;44.86;102335.78;5076581;28;58480;-81
2022/08/06 05:30:01;;;;;;;;;0.00;0.00;;;;;16.83;44.01;102338.41;5058759;28;45251;-81
2022/08/06 05:32:26;;;;;;;;;1.00;1.00;;;;;16.82;44.11;102333.16;5077514;28;45334;-81
2022/08/06 05:34:52;;;;;;;;;1.25;0.25;;;;;16.82;44.42;102334.03;5076776;28;70033;-81
2022/08/06 05:37:17;;;;;;;;;1.00;1.00;;;;;16.83;43.78;102337.56;5076947;28;63509;-81
2022/08/06 05:39:43;;;;;;;;;0.00;0.00;;;;;16.83;44.50;102341.03;5058874;28;59380;-81
2022/08/06 05:42:08;;;;;;;;;1.75;0.00;;;;;16.86;43.61;102344.47;5077547;28;46185;-81
2022/08/06 05:44:33;;;;;;;;;1.75;0.25;;;;;16.86;44.69;102340.06;5076234;28;73314;-81
2022/08/06 05:47:07;;;;;;;;;2.75;1.00;;;;;16.89;43.96;102342.63;5076678;28;62177;-81
2022/08/06 05:49:45;;;;;;;;;0.00;0.00;;;;;16.91;43.86;102342.56;5077410;28;45433;-81
2022/08/06 05:52:21;;;;;;;;;0.00;0.00;;;;;16.92;43.31;102341.66;5059083;28;45573;-81
2022/08/06 05:54:54;;;;;;;;;1.00;1.00;;;;;16.96;43.57;102348.56;5060560;28;45374;-81
2022/08/06 05:57:42;;;;;;;;;1.00;0.50;;;;;16.95;43.51;102347.69;5068888;28;45367;-81
2022/08/06 06:00:10;;;;;;;;;1.00;1.00;;;;;16.99;43.62;102357.22;5060039;28;45359;-82
2022/08/06 06:02:38;;;;;;;;;1.00;1.00;;;;;17.02;43.58;102361.53;5059337;28;45414;-80
2022/08/06 06:05:05;;;;;;;;;1.00;1.00;;;;;17.03;43.55;102357.97;5058922;28;45837;-81
2022/08/06 06:07:31;;;;;;;;;0.25;0.00;;;;;17.05;43.26;102356.19;5059160;28;45456;-81
2022/08/06 06:09:57;;;;;;;;;1.25;0.75;;;;;17.05;43.21;102350.03;5059120;28;45382;-81
2022/08/06 06:12:22;;;;;;;;;1.00;1.00;;;;;17.05;43.40;102356.19;5076444;28;63203;-80
2022/08/06 06:14:49;;;;;;;;;1.00;0.25;;;;;17.04;44.37;102349.19;5075730;28;68982;-80
2022/08/06 06:17:48;;;;;;;;;0.25;0.25;;;;;17.08;43.55;102360.47;5042197;28;45321;-81
2022/08/06 06:20:17;;;;;;;;;0.50;0.00;;;;;17.10;43.53;102356.88;5076974;28;45456;-81
2022/08/06 06:23:08;;;;;;;;;1.00;1.00;;;;;17.12;44.17;102356.84;5076766;28;47356;-81
2022/08/06 06:25:37;;;;;;;;;1.00;1.00;;;;;17.14;43.96;102360.28;5058666;28;45782;-81
2022/08/06 06:28:16;;;;;;;;;0.00;0.00;;;;;17.15;43.89;102365.50;5058498;28;45378;-81
2022/08/06 06:30:50;;;;;;;;;1.00;0.00;;;;;17.18;43.56;102364.56;5058567;28;45522;-81
2022/08/06 06:33:20;;;;;;;;;2.50;1.00;;;;;17.21;43.38;102357.41;5058613;28;46530;-81
2022/08/06 06:35:45;;;;;;;;;2.00;0.00;;;;;17.25;43.51;102359.94;5076727;28;45805;-81
2022/08/06 06:38:25;;;;;;;;;0.67;0.67;;;;;17.28;43.58;102357.22;5076608;28;45300;-81
2022/08/06 06:40:56;;;;;;;;;1.00;1.00;;;;;17.30;43.54;102364.16;5076112;28;45391;-81
2022/08/06 06:43:49;;;;;;;;;0.75;0.75;;;;;17.33;43.68;102363.22;5076172;28;45325;-81
2022/08/06 06:46:23;;;;;;;;;1.00;1.00;;;;;17.34;43.12;102363.16;5058277;28;45822;-81
2022/08/06 06:48:51;;;;;;;;;0.00;0.00;;;;;17.38;42.98;102361.28;5058421;28;45448;-81
2022/08/06 06:51:27;;;;;;;;;2.00;0.00;;;;;17.41;43.05;102359.41;5076454;28;45296;-81
2022/08/06 06:53:55;;;;;;;;;2.00;1.00;;;;;17.43;42.81;102356.75;5076368;28;46092;-81
2022/08/06 06:56:24;;;;;;;;;0.00;0.00;;;;;17.45;42.41;102351.44;5058189;28;45975;-81
2022/08/06 06:59:01;;;;;;;;;0.75;0.75;;;;;17.48;42.37;102353.97;5058165;28;45400;-81
2022/08/06 07:01:30;;;;;;;;;0.75;0.00;;;;;17.52;41.79;102360.84;5058428;28;45359;-81
2022/08/06 07:03:57;;;;;;;;;3.00;1.00;;;;;17.56;41.65;102357.22;5076163;27;46306;-81
2022/08/06 07:06:23;;;;;;;;;2.00;0.25;;;;;17.59;42.12;102359.75;5058216;28;45467;-81
2022/08/06 07:08:50;;;;;;;;;4.00;1.00;;;;;17.65;41.47;102363.97;5058090;28;45361;-81
2022/08/06 07:11:20;;;;;;;;;2.25;1.00;;;;;17.71;41.70;102375.13;5058494;28;45428;-81
2022/08/06 07:13:46;;;;;;;;;5.00;0.75;;;;;17.79;41.75;102378.38;5075697;28;45705;-81
2022/08/06 07:16:23;;;;;;;;;0.25;0.25;;;;;17.86;41.77;102380.84;5057955;28;45415;-81
2022/08/06 07:18:49;;;;;;;;;1.00;1.00;;;;;17.92;41.33;102378.88;5076295;28;45387;-81
2022/08/06 07:21:17;;;;;;;;;2.00;0.00;;;;;17.97;41.46;102387.47;5057966;28;45364;-81
2022/08/06 07:23:45;;;;;;;;;1.00;0.00;;;;;18.05;40.67;102388.97;5057816;28;46228;-80
2022/08/06 07:26:13;;;;;;;;;0.00;0.00;;;;;18.13;40.89;102390.44;5057658;28;45386;-81
2022/08/06 07:28:38;;;;;;;;;0.00;0.00;;;;;18.21;40.42;102389.31;5057940;28;45325;-81
2022/08/06 07:31:05;;;;;;;;;0.75;0.75;;;;;18.28;40.21;102390.84;5070801;28;49893;-81
2022/08/06 07:33:35;;;;;;;;;1.00;0.00;;;;;18.34;39.93;102386.19;5037560;28;47325;-81
2022/08/06 07:36:00;;;;;;;;;0.00;0.00;;;;;18.43;39.76;102384.16;5037751;28;45408;-80
2022/08/06 07:38:31;;;;;;;;;1.50;0.00;;;;;18.49;39.59;102384.78;5037712;28;45421;-81
2022/08/06 07:41:00;;;;;;;;;0.50;0.50;;;;;18.56;39.12;102385.44;5054478;28;67158;-81
2022/08/06 07:43:29;;;;;;;;;0.00;0.00;;;;;18.62;39.43;102385.19;5037597;28;45429;-81
2022/08/06 07:45:56;;;;;;;;;0.00;0.00;;;;;18.71;39.18;102386.66;5037563;28;45322;-81
2022/08/06 07:48:49;;;;;;;;;0.00;0.00;;;;;18.81;39.06;102388.03;5037476;28;45452;-81
2022/08/06 07:51:15;;;;;;;;;0.00;0.00;;;;;18.90;38.49;102384.22;5035217;28;45418;-81
2022/08/06 07:53:41;;;;;;;;;1.00;1.00;;;;;18.94;38.33;102386.69;5058750;28;51817;-81
2022/08/06 07:56:08;;;;;;;;;0.00;0.00;;;;;19.01;38.19;102384.66;5040767;28;45352;-81
2022/08/06 07:58:35;;;;;;;;;0.00;0.00;;;;;19.06;38.08;102388.00;5041140;28;45415;-81
2022/08/06 08:01:01;;;;;;;;;0.00;0.00;;;;;19.10;38.14;102386.09;5041063;28;45499;-81
2022/08/06 08:06:24;;;;;;;;;0.50;0.50;;;;;19.20;36.96;102395.34;5056795;28;45308;-80
2022/08/06 08:08:53;;;;;;;;;0.00;0.00;;;;;19.25;37.32;102388.13;5060852;28;45437;-81
2022/08/06 08:11:20;;;;;;;;;0.50;0.00;;;;;19.30;36.68;102391.44;5040592;28;45469;-81
2022/08/06 08:13:45;;;;;;;;;0.00;0.00;;;;;19.37;36.56;102391.19;5040660;28;45409;-81
2022/08/06 08:16:13;;;;;;;;;0.75;0.00;;;;;19.44;36.96;102396.16;5057726;28;70301;-81
2022/08/06 08:18:39;;;;;;;;;2.50;0.25;;;;;19.50;36.34;102401.22;5058854;28;45421;-81
2022/08/06 08:21:06;;;;;;;;;1.25;0.00;;;;;19.57;36.35;102393.03;5058624;28;45311;-81
2022/08/06 08:23:32;;;;;;;;;1.00;0.00;;;;;19.62;36.08;102396.38;5040537;28;46300;-81
2022/08/06 08:25:59;;;;;;;;;0.25;0.00;;;;;19.67;36.00;102405.81;5077249;28;45275;-81
2022/08/06 08:28:24;;;;;;;;;1.00;0.00;;;;;19.75;35.54;102404.69;5077728;28;45327;-81
2022/08/06 08:30:49;;;;;;;;;0.00;0.00;;;;;19.78;35.93;102399.25;5077900;27;62638;-81
2022/08/06 08:33:15;;;;;;;;;3.75;0.00;;;;;19.83;35.88;102398.13;5111481;27;46335;-81
2022/08/06 08:35:41;;;;;;;;;0.00;0.00;;;;;19.88;35.52;102396.16;5077533;28;45379;-81
2022/08/06 08:38:06;;;;;;;;;2.00;0.00;;;;;19.95;35.76;102395.91;5078652;28;45369;-80
2022/08/06 08:40:34;;;;;;;;;0.00;0.00;;;;;20.02;35.71;102400.00;5077543;28;62636;-81
2022/08/06 08:43:01;;;;;;;;;0.00;0.00;;;;;20.08;35.33;102394.47;5078524;28;45481;-81
2022/08/06 08:45:28;;;;;;;;;0.00;0.00;;;;;20.17;35.18;102391.44;5077747;28;64500;-81
2022/08/06 08:47:53;;;;;;;;;0.00;0.00;;;;;20.25;34.99;102389.31;5111282;27;45368;-81
2022/08/06 08:50:22;;;;;;;;;0.00;0.00;;;;;20.34;34.77;102381.88;5060186;28;45527;-81
2022/08/06 08:52:50;;;;;;;;;1.00;1.00;;;;;20.40;34.96;102390.44;5078601;28;45517;-81
2022/08/06 08:55:17;;;;;;;;;2.00;1.00;;;;;20.48;34.52;102387.44;5111054;27;45726;-81
2022/08/06 08:57:42;;;;;;;;;2.00;0.25;;;;;20.52;34.07;102381.06;5077143;28;45323;-81
2022/08/06 09:00:08;;;;;;;;;2.00;0.00;;;;;20.57;34.15;102378.25;5110525;27;69807;-81
2022/08/06 09:02:37;;;;;;;;;0.25;0.25;;;;;20.60;34.48;102383.41;5077926;28;45360;-81
2022/08/06 09:05:02;;;;;;;;;0.00;0.00;;;;;20.62;34.42;102387.72;5111039;27;45569;-81
2022/08/06 09:07:28;;;;;;;;;0.00;0.00;;;;;20.66;33.69;102391.09;5077953;28;45341;-81
2022/08/06 09:09:54;;;;;;;;;0.75;0.75;;;;;20.71;33.99;102385.56;5077001;28;45407;-81
2022/08/06 09:12:20;;;;;;;;;1.00;1.00;;;;;20.79;33.97;102394.88;5078112;28;45504;-81
2022/08/06 09:14:46;;;;;;;;;2.00;0.50;;;;;20.84;33.57;102390.25;5076954;28;45479;-81
2022/08/06 09:17:12;;;;;;;;;1.00;1.00;;;;;20.91;33.86;102389.94;5078108;28;45372;-81
2022/08/06 09:19:37;;;;;;;;;0.00;0.00;;;;;20.98;33.97;102388.75;5078266;28;45387;-81
2022/08/06 09:22:03;;;;;;;;;1.50;1.00;;;;;21.05;33.24;102398.13;5076396;28;46438;-81
2022/08/06 09:24:29;;;;;;;;;1.00;1.00;;;;;21.11;33.15;102402.25;5076287;28;45431;-81
2022/08/06 09:27:15;;;;;;;;;2.00;0.75;;;;;21.17;33.27;102399.31;5077739;28;45322;-81
2022/08/06 09:29:51;;;;;;;;;0.75;0.75;;;;;21.23;33.55;102401.69;5077721;28;45370;-81
2022/08/06 09:32:40;;;;;;;;;0.00;0.00;;;;;21.31;33.99;102402.16;5077534;28;45468;-82
2022/08/06 09:35:21;;;;;;;;;1.75;0.50;;;;;21.38;32.85;102400.94;5077629;28;45395;-81
2022/08/06 09:37:48;;;;;;;;;0.00;0.00;;;;;21.42;33.32;102394.56;5077398;28;45523;-81
2022/08/06 09:40:17;;;;;;;;;0.00;0.00;;;;;21.49;32.91;102395.16;5077528;28;45406;-81
2022/08/06 09:42:46;;;;;;;;;0.25;0.25;;;;;21.54;32.97;102393.13;5110606;27;46542;-81
2022/08/06 09:45:13;;;;;;;;;0.00;0.00;;;;;21.60;32.49;102402.56;5077533;28;45252;-81
2022/08/06 09:47:39;;;;;;;;;1.75;1.00;;;;;21.65;32.75;102393.47;5077590;28;45288;-81
2022/08/06 09:50:06;;;;;;;;;1.25;1.00;;;;;21.73;31.93;102390.44;5077526;28;45269;-81
2022/08/06 09:52:31;;;;;;;;;1.75;1.00;;;;;21.76;31.78;102392.94;5076062;28;46124;-81
2022/08/06 09:54:56;;;;;;;;;1.25;1.00;;;;;21.79;32.57;102394.59;5077352;28;45230;-81
2022/08/06 09:57:23;;;;;;;;;0.00;0.00;;;;;21.85;31.83;102394.28;5076564;28;69114;-81
2022/08/06 09:59:49;;;;;;;;;0.75;0.25;;;;;21.89;32.01;102387.03;5076365;28;45466;-81
2022/08/06 10:02:17;;;;;;;;;0.00;0.00;;;;;21.95;32.02;102392.00;5076236;28;74765;-81
2022/08/06 10:04:43;;;;;;;;;0.00;0.00;;;;;21.99;31.99;102386.47;5075826;27;45412;-81
2022/08/06 10:07:08;;;;;;;;;0.00;0.00;;;;;22.03;32.01;102396.00;5076917;28;45433;-81
2022/08/06 10:09:37;;;;;;;;;1.00;1.00;;;;;22.07;31.46;102393.19;5076242;28;70579;-81
2022/08/06 10:12:16;;;;;;;;;1.00;1.00;;;;;22.08;31.76;102386.94;5075806;28;46468;-81
2022/08/06 10:14:42;;;;;;;;;2.00;0.50;;;;;22.12;31.83;102375.22;5077214;28;45849;-81
2022/08/06 10:17:15;;;;;;;;;1.50;1.00;;;;;22.18;31.17;102380.22;5085176;28;45357;-81
2022/08/06 10:19:43;;;;;;;;;0.00;0.00;;;;;22.24;30.94;102379.91;5076551;28;45571;-81
2022/08/06 10:22:16;;;;;;;;;0.00;0.00;;;;;22.30;30.67;102378.75;5075703;28;47512;-81
2022/08/06 10:24:42;;;;;;;;;0.00;0.00;;;;;22.32;31.33;102374.22;5076938;27;45355;-81
2022/08/06 10:27:11;;;;;;;;;0.00;0.00;;;;;22.37;30.87;102381.00;5077112;28;45403;-81
2022/08/06 10:29:42;;;;;;;;;0.00;0.00;;;;;22.41;31.94;102379.88;5059000;28;45366;-81
2022/08/06 10:32:11;;;;;;;;;1.00;1.00;;;;;22.50;31.71;102373.25;5045176;28;46290;-81
2022/08/06 10:34:39;;;;;;;;;1.75;1.00;;;;;22.60;30.42;102368.28;5038313;28;45314;-81
2022/08/06 10:37:07;;;;;;;;;1.50;0.25;;;;;22.68;30.33;102365.22;5056551;28;45287;-81
2022/08/06 10:39:36;;;;;;;;;1.00;1.00;;;;;22.76;30.47;102368.31;5038895;28;45447;-81
2022/08/06 10:42:02;;;;;;;;;1.00;1.00;;;;;22.84;29.87;102375.88;5056247;28;46587;-81
2022/08/06 10:44:28;;;;;;;;;0.75;0.75;;;;;22.88;29.62;102362.34;5056580;28;45762;-81
2022/08/06 10:46:54;;;;;;;;;0.50;0.50;;;;;22.93;29.63;102364.75;5038383;28;45344;-81
2022/08/06 10:49:20;;;;;;;;;0.25;0.25;;;;;23.03;29.09;102359.75;5055068;28;70444;-81
2022/08/06 10:51:49;;;;;;;;;1.50;0.00;;;;;23.12;29.18;102356.63;5056196;28;45534;-80
2022/08/06 10:54:16;;;;;;;;;0.00;0.00;;;;;23.20;28.70;102362.38;5056121;28;45806;-80
2022/08/06 10:56:42;;;;;;;;;2.00;1.00;;;;;23.29;28.75;102355.66;5056587;28;45319;-80
2022/08/06 10:59:08;;;;;;;;;0.00;0.00;;;;;23.41;28.90;102360.28;5038358;28;45322;-81
2022/08/06 11:01:48;;;;;;;;;1.00;0.25;;;;;23.50;28.63;102342.97;5056284;28;45622;-80
2022/08/06 11:04:23;;;;;;;;;0.00;0.00;;;;;23.57;27.81;102346.97;5061597;28;45648;-81
2022/08/06 11:06:58;;;;;;;;;0.75;0.25;;;;;23.61;27.85;102345.84;5058413;28;45406;-81
2022/08/06 11:09:31;;;;;;;;;0.25;0.25;;;;;23.71;27.50;102346.16;5076370;28;45364;-81
2022/08/06 11:12:03;;;;;;;;;0.75;0.75;;;;;23.78;27.45;102343.03;5076438;28;46903;-81
2022/08/06 11:14:28;;;;;;;;;0.50;0.50;;;;;23.89;26.99;102342.44;5076197;28;45470;-81
2022/08/06 11:16:58;;;;;;;;;1.00;0.25;;;;;24.01;26.76;102343.47;5075302;28;66485;-81
2022/08/06 11:19:44;;;;;;;;;1.00;1.00;;;;;24.04;26.72;102340.63;5075912;28;45373;-81
2022/08/06 11:22:38;;;;;;;;;1.75;1.00;;;;;24.14;26.60;102335.59;5057799;28;45511;-81
2022/08/06 11:25:06;;;;;;;;;2.75;1.00;;;;;24.27;26.69;102325.91;5066089;28;45399;-81
2022/08/06 11:27:56;;;;;;;;;1.00;1.00;;;;;24.46;27.34;102324.78;5079747;27;45385;-81
2022/08/06 11:30:55;;;;;;;;;1.00;1.00;;;;;24.69;27.26;102326.03;5078486;28;45262;-81
2022/08/06 11:33:37;;;;;;;;;1.00;1.00;;;;;24.98;26.16;102317.94;5058895;27;46211;-81
2022/08/06 11:36:09;;;;;;;;;0.75;0.75;;;;;25.24;26.46;102310.94;5091896;27;45766;-80